sensor_id;sensor_type;location;lat;lon;timestamp;pressure;altitude;pressure_sealevel;temperature;humidity
9257;BME280;4665;51.368;6.782;2023-02-01T00:00:21;101743.06;;;5.28;100.00
9257;BME280;4665;51.368;6.782;2023-02-01T00:02:47;101740.50;;;5.26;100.00
9257;BME280;4665;51.368;6.782;2023-02-01T00:05:13;101751.00;;;5.28;100.00
9257;BME280;4665;51.368;6.782;2023-02-01T00:07:38;101738.63;;;5.28;100.00
9257;BME280;4665;51.368;6.782;2023-02-01T00:10:05;101742.97;;;5.30;100.00
9257;BME280;4665;51.368;6.782;2023-02-01T00:12:31;101732.28;;;5.31;100.00
9257;BME280;4665;51.368;6.782;2023-02-01T00:14:57;101732.28;;;5.31;100.00
9257;BME280;4665;51.368;6.782;2023-02-01T00:17:22;101728.19;;;5.27;100.00
9257;BME280;4665;51.368;6.782;2023-02-01T00:19:48;101728.72;;;5.32;100.00
9257;BME280;4665;51.368;6.782;2023-02-01T00:22:13;101728.72;;;5.32;100.00
9257;BME280;4665;51.368;6.782;2023-02-01T00:24:38;101721.94;;;5.28;100.00
9257;BME280;4665;51.368;6.782;2023-02-01T00:27:04;101732.28;;;5.31;100.00
9257;BME280;4665;51.368;6.782;2023-02-01T00:29:29;101726.09;;;5.32;100.00
9257;BME280;4665;51.368;6.782;2023-02-01T00:31:55;101715.59;;;5.31;100.00
9257;BME280;4665;51.368;6.782;2023-02-01T00:34:21;101719.97;;;5.32;100.00
9257;BME280;4665;51.368;6.782;2023-02-01T00:36:47;101719.09;;;5.31;100.00
9257;BME280;4665;51.368;6.782;2023-02-01T00:39:15;101714.97;;;5.27;100.00
9257;BME280;4665;51.368;6.782;2023-02-01T00:41:40;101712.13;;;5.30;100.00
9257;BME280;4665;51.368;6.782;2023-02-01T00:44:06;101709.38;;;5.32;100.00
9257;BME280;4665;51.368;6.782;2023-02-01T00:46:32;101689.09;;;5.32;100.00
9257;BME280;4665;51.368;6.782;2023-02-01T00:48:58;101665.81;;;5.24;100.00
9257;BME280;4665;51.368;6.782;2023-02-01T00:51:27;101675.75;;;5.34;100.00
9257;BME280;4665;51.368;6.782;2023-02-01T00:53:53;101680.31;;;5.32;100.00
9257;BME280;4665;51.368;6.782;2023-02-01T00:56:19;101690.03;;;5.31;100.00
9257;BME280;4665;51.368;6.782;2023-02-01T00:58:44;101697.31;;;5.27;100.00
9257;BME280;4665;51.368;6.782;2023-02-01T01:03:43;101699.50;;;5.21;100.00
9257;BME280;4665;51.368;6.782;2023-02-01T01:06:15;101727.41;;;5.25;100.00
9257;BME280;4665;51.368;6.782;2023-02-01T01:08:41;101711.75;;;5.22;100.00
9257;BME280;4665;51.368;6.782;2023-02-01T01:11:13;101715.06;;;5.25;100.00
9257;BME280;4665;51.368;6.782;2023-02-01T01:13:39;101716.66;;;5.28;100.00
9257;BME280;4665;51.368;6.782;2023-02-01T01:16:06;101715.59;;;5.31;100.00
9257;BME280;4665;51.368;6.782;2023-02-01T01:18:32;101710.22;;;5.32;100.00
9257;BME280;4665;51.368;6.782;2023-02-01T01:20:59;101708.44;;;5.33;100.00
9257;BME280;4665;51.368;6.782;2023-02-01T01:23:25;101708.44;;;5.33;100.00
9257;BME280;4665;51.368;6.782;2023-02-01T01:25:50;101725.25;;;5.32;100.00
9257;BME280;4665;51.368;6.782;2023-02-01T01:28:16;101703.16;;;5.33;100.00
9257;BME280;4665;51.368;6.782;2023-02-01T01:30:41;101711.16;;;5.31;100.00
9257;BME280;4665;51.368;6.782;2023-02-01T01:33:07;101710.03;;;5.35;100.00
9257;BME280;4665;51.368;6.782;2023-02-01T01:35:33;101718.34;;;5.29;100.00
9257;BME280;4665;51.368;6.782;2023-02-01T01:37:59;101711.38;;;5.28;100.00
9257;BME280;4665;51.368;6.782;2023-02-01T01:40:26;101718.53;;;5.26;100.00
9257;BME280;4665;51.368;6.782;2023-02-01T01:42:52;101721.59;;;5.20;100.00
9257;BME280;4665;51.368;6.782;2023-02-01T01:50:45;101684.41;;;5.23;100.00
9257;BME280;4665;51.368;6.782;2023-02-01T01:53:16;101706.88;;;5.16;100.00
9257;BME280;4665;51.368;6.782;2023-02-01T01:55:45;101689.31;;;5.15;100.00
9257;BME280;4665;51.368;6.782;2023-02-01T01:58:18;101687.69;;;5.12;100.00
9257;BME280;4665;51.368;6.782;2023-02-01T02:03:42;101685.34;;;5.07;100.00
9257;BME280;4665;51.368;6.782;2023-02-01T02:08:42;101681.78;;;4.94;100.00
9257;BME280;4665;51.368;6.782;2023-02-01T02:11:08;101678.22;;;4.95;100.00
9257;BME280;4665;51.368;6.782;2023-02-01T02:13:46;101680.09;;;4.93;100.00
9257;BME280;4665;51.368;6.782;2023-02-01T02:16:23;101677.81;;;4.87;100.00
9257;BME280;4665;51.368;6.782;2023-02-01T02:19:03;101668.22;;;4.86;100.00
9257;BME280;4665;51.368;6.782;2023-02-01T02:30:27;101669.28;;;4.69;100.00
9257;BME280;4665;51.368;6.782;2023-02-01T02:36:06;101660.97;;;4.61;100.00
9257;BME280;4665;51.368;6.782;2023-02-01T02:44:53;101650.06;;;4.53;100.00
9257;BME280;4665;51.368;6.782;2023-02-01T02:47:57;101650.91;;;4.53;100.00
9257;BME280;4665;51.368;6.782;2023-02-01T02:53:35;101646.66;;;4.51;100.00
9257;BME280;4665;51.368;6.782;2023-02-01T02:56:23;101645.78;;;4.50;100.00
9257;BME280;4665;51.368;6.782;2023-02-01T02:59:14;101640.72;;;4.47;100.00
9257;BME280;4665;51.368;6.782;2023-02-01T03:01:59;101658.25;;;4.48;100.00
9257;BME280;4665;51.368;6.782;2023-02-01T03:04:43;101650.50;;;4.45;100.00
9257;BME280;4665;51.368;6.782;2023-02-01T03:07:52;101645.91;;;4.49;100.00
9257;BME280;4665;51.368;6.782;2023-02-01T03:10:24;101645.97;;;4.47;100.00
9257;BME280;4665;51.368;6.782;2023-02-01T03:12:53;101635.44;;;4.47;100.00
9257;BME280;4665;51.368;6.782;2023-02-01T03:15:36;101632.59;;;4.50;100.00
9257;BME280;4665;51.368;6.782;2023-02-01T03:18:07;101631.66;;;4.51;100.00
9257;BME280;4665;51.368;6.782;2023-02-01T03:20:37;101619.59;;;4.47;100.00
9257;BME280;4665;51.368;6.782;2023-02-01T03:23:05;101612.63;;;4.46;100.00
9257;BME280;4665;51.368;6.782;2023-02-01T03:25:32;101625.16;;;4.57;100.00
9257;BME280;4665;51.368;6.782;2023-02-01T03:28:02;101622.63;;;4.55;100.00
9257;BME280;4665;51.368;6.782;2023-02-01T03:30:36;101608.66;;;4.53;100.00
9257;BME280;4665;51.368;6.782;2023-02-01T03:33:05;101607.06;;;4.51;100.00
9257;BME280;4665;51.368;6.782;2023-02-01T03:39:31;101610.34;;;4.54;100.00
9257;BME280;4665;51.368;6.782;2023-02-01T03:42:05;101630.25;;;4.60;100.00
9257;BME280;4665;51.368;6.782;2023-02-01T03:45:20;101621.59;;;4.58;100.00
9257;BME280;4665;51.368;6.782;2023-02-01T03:47:22;101610.28;;;4.56;100.00
9257;BME280;4665;51.368;6.782;2023-02-01T03:49:55;101615.19;;;4.62;100.00
9257;BME280;4665;51.368;6.782;2023-02-01T03:55:03;101608.66;;;4.68;100.00
9257;BME280;4665;51.368;6.782;2023-02-01T03:57:33;101597.34;;;4.66;100.00
9257;BME280;4665;51.368;6.782;2023-02-01T04:00:08;101596.28;;;4.68;100.00
9257;BME280;4665;51.368;6.782;2023-02-01T04:02:35;101599.06;;;4.67;100.00
9257;BME280;4665;51.368;6.782;2023-02-01T04:05:00;101596.13;;;4.71;100.00
9257;BME280;4665;51.368;6.782;2023-02-01T04:07:26;101581.31;;;4.69;100.00
9257;BME280;4665;51.368;6.782;2023-02-01T04:09:51;101566.50;;;4.66;100.00
9257;BME280;4665;51.368;6.782;2023-02-01T04:12:16;101565.38;;;4.70;100.00
9257;BME280;4665;51.368;6.782;2023-02-01T04:14:42;101576.78;;;4.71;100.00
9257;BME280;4665;51.368;6.782;2023-02-01T04:17:07;101572.66;;;4.67;100.00
9257;BME280;4665;51.368;6.782;2023-02-01T04:19:33;101564.81;;;4.65;100.00
9257;BME280;4665;51.368;6.782;2023-02-01T04:21:58;101575.47;;;4.63;100.00
9257;BME280;4665;51.368;6.782;2023-02-01T04:24:24;101567.47;;;4.65;100.00
9257;BME280;4665;51.368;6.782;2023-02-01T04:26:49;101578.88;;;4.66;100.00
9257;BME280;4665;51.368;6.782;2023-02-01T04:29:14;101577.56;;;4.58;100.00
9257;BME280;4665;51.368;6.782;2023-02-01T04:31:40;101594.78;;;4.64;100.00
9257;BME280;4665;51.368;6.782;2023-02-01T04:34:05;101582.63;;;4.61;100.00
9257;BME280;4665;51.368;6.782;2023-02-01T04:36:31;101575.75;;;4.59;100.00
9257;BME280;4665;51.368;6.782;2023-02-01T04:38:56;101591.22;;;4.65;100.00
9257;BME280;4665;51.368;6.782;2023-02-01T04:41:21;101600.53;;;4.71;100.00
9257;BME280;4665;51.368;6.782;2023-02-01T04:43:49;101593.56;;;4.70;100.00
9257;BME280;4665;51.368;6.782;2023-02-01T04:46:15;101583.78;;;4.57;100.00
9257;BME280;4665;51.368;6.782;2023-02-01T04:48:41;101586.56;;;4.69;100.00
9257;BME280;4665;51.368;6.782;2023-02-01T04:51:07;101580.56;;;4.67;100.00
9257;BME280;4665;51.368;6.782;2023-02-01T04:53:32;101572.81;;;4.63;100.00
9257;BME280;4665;51.368;6.782;2023-02-01T04:55:58;101595.91;;;4.74;100.00
9257;BME280;4665;51.368;6.782;2023-02-01T04:58:23;101594.31;;;4.72;100.00
9257;BME280;4665;51.368;6.782;2023-02-01T05:00:48;101606.97;;;4.67;100.00
9257;BME280;4665;51.368;6.782;2023-02-01T05:03:14;101598.09;;;4.68;100.00
9257;BME280;4665;51.368;6.782;2023-02-01T05:05:40;101591.84;;;4.69;100.00
9257;BME280;4665;51.368;6.782;2023-02-01T05:08:05;101586.97;;;4.62;100.00
9257;BME280;4665;51.368;6.782;2023-02-01T05:10:31;101610.34;;;4.69;100.00
9257;BME280;4665;51.368;6.782;2023-02-01T05:12:56;101616.78;;;4.64;100.00
9257;BME280;4665;51.368;6.782;2023-02-01T05:15:40;101602.06;;;4.60;100.00
9257;BME280;4665;51.368;6.782;2023-02-01T05:18:05;101603.09;;;4.58;100.00
9257;BME280;4665;51.368;6.782;2023-02-01T05:20:31;101597.00;;;4.57;100.00
9257;BME280;4665;51.368;6.782;2023-02-01T05:22:56;101592.91;;;4.52;100.00
9257;BME280;4665;51.368;6.782;2023-02-01T05:25:22;101609.31;;;4.57;100.00
9257;BME280;4665;51.368;6.782;2023-02-01T05:27:47;101603.09;;;4.58;100.00
9257;BME280;4665;51.368;6.782;2023-02-01T05:30:13;101621.94;;;4.52;100.00
9257;BME280;4665;51.368;6.782;2023-02-01T05:32:39;101610.63;;;4.50;100.00
9257;BME280;4665;51.368;6.782;2023-02-01T05:35:04;101600.00;;;4.51;100.00
9257;BME280;4665;51.368;6.782;2023-02-01T05:37:30;101592.16;;;4.50;100.00
9257;BME280;4665;51.368;6.782;2023-02-01T05:39:55;101603.00;;;4.45;100.00
9257;BME280;4665;51.368;6.782;2023-02-01T05:42:20;101596.34;;;4.39;100.00
9257;BME280;4665;51.368;6.782;2023-02-01T05:44:46;101603.41;;;4.39;100.00
9257;BME280;4665;51.368;6.782;2023-02-01T05:47:11;101587.19;;;4.31;100.00
9257;BME280;4665;51.368;6.782;2023-02-01T05:49:37;101604.53;;;4.35;100.00
9257;BME280;4665;51.368;6.782;2023-02-01T05:52:03;101602.66;;;4.37;100.00
9257;BME280;4665;51.368;6.782;2023-02-01T05:54:28;101586.81;;;4.22;100.00
9257;BME280;4665;51.368;6.782;2023-02-01T05:56:54;101568.44;;;4.21;100.00
9257;BME280;4665;51.368;6.782;2023-02-01T05:59:19;101580.31;;;4.28;100.00
9257;BME280;4665;51.368;6.782;2023-02-01T06:01:45;101574.94;;;4.30;100.00
9257;BME280;4665;51.368;6.782;2023-02-01T06:04:10;101586.72;;;4.24;100.00
9257;BME280;4665;51.368;6.782;2023-02-01T06:06:35;101576.34;;;4.21;100.00
9257;BME280;4665;51.368;6.782;2023-02-01T06:09:03;101583.31;;;4.22;100.00
9257;BME280;4665;51.368;6.782;2023-02-01T06:11:29;101593.50;;;4.14;100.00
9257;BME280;4665;51.368;6.782;2023-02-01T06:13:54;101582.28;;;4.10;100.00
9257;BME280;4665;51.368;6.782;2023-02-01T06:16:21;101588.31;;;4.12;100.00
9257;BME280;4665;51.368;6.782;2023-02-01T06:18:47;101608.66;;;4.25;100.00
9257;BME280;4665;51.368;6.782;2023-02-01T06:21:12;101610.00;;;4.32;100.00
9257;BME280;4665;51.368;6.782;2023-02-01T06:23:39;101597.75;;;4.31;100.00
9257;BME280;4665;51.368;6.782;2023-02-01T06:26:06;101606.03;;;4.39;100.00
9257;BME280;4665;51.368;6.782;2023-02-01T06:28:33;101606.88;;;4.39;100.00
9257;BME280;4665;51.368;6.782;2023-02-01T06:31:05;101607.94;;;4.37;100.00
9257;BME280;4665;51.368;6.782;2023-02-01T06:33:34;101623.19;;;4.46;100.00
9257;BME280;4665;51.368;6.782;2023-02-01T06:36:02;101619.41;;;4.50;100.00
9257;BME280;4665;51.368;6.782;2023-02-01T06:38:28;101593.59;;;4.41;100.00
9257;BME280;4665;51.368;6.782;2023-02-01T06:40:55;101603.56;;;4.50;100.00
9257;BME280;4665;51.368;6.782;2023-02-01T06:43:25;101611.03;;;4.58;100.00
9257;BME280;4665;51.368;6.782;2023-02-01T06:45:51;101603.41;;;4.53;100.00
9257;BME280;4665;51.368;6.782;2023-02-01T06:48:17;101612.63;;;4.60;100.00
9257;BME280;4665;51.368;6.782;2023-02-01T06:50:43;101607.34;;;4.60;100.00
9257;BME280;4665;51.368;6.782;2023-02-01T06:53:08;101602.34;;;4.56;100.00
9257;BME280;4665;51.368;6.782;2023-02-01T06:55:33;101618.75;;;4.61;100.00
9257;BME280;4665;51.368;6.782;2023-02-01T06:57:59;101620.53;;;4.60;100.00
9257;BME280;4665;51.368;6.782;2023-02-01T07:00:26;101615.25;;;4.60;100.00
9257;BME280;4665;51.368;6.782;2023-02-01T07:02:51;101600.00;;;4.51;100.00
9257;BME280;4665;51.368;6.782;2023-02-01T07:05:17;101602.63;;;4.51;100.00
9257;BME280;4665;51.368;6.782;2023-02-01T07:07:43;101620.34;;;4.63;100.00
9257;BME280;4665;51.368;6.782;2023-02-01T07:10:09;101603.41;;;4.53;100.00
9257;BME280;4665;51.368;6.782;2023-02-01T07:12:35;101624.50;;;4.68;100.00
9257;BME280;4665;51.368;6.782;2023-02-01T07:15:01;101626.16;;;4.69;100.00
9257;BME280;4665;51.368;6.782;2023-02-01T07:17:27;101633.16;;;4.70;100.00
9257;BME280;4665;51.368;6.782;2023-02-01T07:19:54;101628.66;;;4.72;100.00
9257;BME280;4665;51.368;6.782;2023-02-01T07:22:20;101630.31;;;4.73;100.00
9257;BME280;4665;51.368;6.782;2023-02-01T07:24:45;101642.69;;;4.72;100.00
9257;BME280;4665;51.368;6.782;2023-02-01T07:27:10;101612.59;;;4.75;100.00
9257;BME280;4665;51.368;6.782;2023-02-01T07:29:36;101619.09;;;4.83;100.00
9257;BME280;4665;51.368;6.782;2023-02-01T07:32:01;101623.25;;;4.73;100.00
9257;BME280;4665;51.368;6.782;2023-02-01T07:34:27;101635.03;;;4.82;100.00
9257;BME280;4665;51.368;6.782;2023-02-01T07:36:53;101626.94;;;4.85;100.00
9257;BME280;4665;51.368;6.782;2023-02-01T07:39:18;101615.63;;;4.83;100.00
9257;BME280;4665;51.368;6.782;2023-02-01T07:41:43;101622.78;;;4.81;100.00
9257;BME280;4665;51.368;6.782;2023-02-01T07:44:09;101626.31;;;4.94;100.00
9257;BME280;4665;51.368;6.782;2023-02-01T07:46:34;101642.75;;;4.99;100.00
9257;BME280;4665;51.368;6.782;2023-02-01T07:49:01;101630.28;;;5.01;100.00
9257;BME280;4665;51.368;6.782;2023-02-01T07:51:26;101626.91;;;4.99;100.00
9257;BME280;4665;51.368;6.782;2023-02-01T07:53:51;101624.25;;;4.99;100.00
9257;BME280;4665;51.368;6.782;2023-02-01T07:56:19;101621.91;;;4.95;100.00
9257;BME280;4665;51.368;6.782;2023-02-01T07:58:52;101623.09;;;5.03;100.00
9257;BME280;4665;51.368;6.782;2023-02-01T08:01:23;101637.81;;;5.07;100.00
9257;BME280;4665;51.368;6.782;2023-02-01T08:03:57;101625.41;;;4.95;100.00
9257;BME280;4665;51.368;6.782;2023-02-01T08:06:24;101644.06;;;5.06;100.00
9257;BME280;4665;51.368;6.782;2023-02-01T08:08:50;101654.41;;;5.10;100.00
9257;BME280;4665;51.368;6.782;2023-02-01T08:11:17;101645.44;;;5.12;100.00
9257;BME280;4665;51.368;6.782;2023-02-01T08:13:43;101647.31;;;5.10;100.00
9257;BME280;4665;51.368;6.782;2023-02-01T08:16:09;101638.00;;;5.04;100.00
9257;BME280;4665;51.368;6.782;2023-02-01T08:18:36;101641.28;;;5.08;100.00
9257;BME280;4665;51.368;6.782;2023-02-01T08:21:06;101649.97;;;5.10;100.00
9257;BME280;4665;51.368;6.782;2023-02-01T08:23:34;101668.56;;;5.09;100.00
9257;BME280;4665;51.368;6.782;2023-02-01T08:26:20;101663.19;;;5.10;100.00
9257;BME280;4665;51.368;6.782;2023-02-01T08:28:53;101682.72;;;5.07;100.00
9257;BME280;4665;51.368;6.782;2023-02-01T08:31:22;101664.34;;;5.06;100.00
9257;BME280;4665;51.368;6.782;2023-02-01T08:33:51;101671.22;;;5.09;100.00
9257;BME280;4665;51.368;6.782;2023-02-01T08:36:17;101667.66;;;4.95;100.00
9257;BME280;4665;51.368;6.782;2023-02-01T08:38:42;101652.72;;;4.94;100.00
9257;BME280;4665;51.368;6.782;2023-02-01T08:41:13;101671.97;;;4.96;100.00
9257;BME280;4665;51.368;6.782;2023-02-01T08:43:39;101682.53;;;4.96;100.00
9257;BME280;4665;51.368;6.782;2023-02-01T08:46:05;101696.88;;;5.06;100.00
9257;BME280;4665;51.368;6.782;2023-02-01T08:48:31;101690.84;;;5.04;100.00
9257;BME280;4665;51.368;6.782;2023-02-01T08:50:57;101695.16;;;5.05;100.00
9257;BME280;4665;51.368;6.782;2023-02-01T08:53:25;101685.75;;;5.01;100.00
9257;BME280;4665;51.368;6.782;2023-02-01T08:55:51;101683.28;;;4.98;100.00
9257;BME280;4665;51.368;6.782;2023-02-01T08:58:16;101688.19;;;5.04;100.00
9257;BME280;4665;51.368;6.782;2023-02-01T09:00:43;101675.38;;;4.98;100.00
9257;BME280;4665;51.368;6.782;2023-02-01T09:03:10;101667.44;;;4.98;100.00
9257;BME280;4665;51.368;6.782;2023-02-01T09:05:36;101673.84;;;5.09;100.00
9257;BME280;4665;51.368;6.782;2023-02-01T09:08:02;101678.28;;;5.08;100.00
9257;BME280;4665;51.368;6.782;2023-02-01T09:10:27;101675.91;;;5.03;100.00
9257;BME280;4665;51.368;6.782;2023-02-01T09:12:52;101665.28;;;5.05;100.00
9257;BME280;4665;51.368;6.782;2023-02-01T09:15:18;101652.16;;;5.03;100.00
9257;BME280;4665;51.368;6.782;2023-02-01T09:17:43;101675.53;;;5.10;100.00
9257;BME280;4665;51.368;6.782;2023-02-01T09:20:09;101678.19;;;5.10;100.00
9257;BME280;4665;51.368;6.782;2023-02-01T09:22:35;101667.16;;;5.03;100.00
9257;BME280;4665;51.368;6.782;2023-02-01T09:25:00;101667.69;;;5.08;100.00
9257;BME280;4665;51.368;6.782;2023-02-01T09:27:25;101648.19;;;4.96;100.00
9257;BME280;4665;51.368;6.782;2023-02-01T09:29:51;101668.56;;;5.09;100.00
9257;BME280;4665;51.368;6.782;2023-02-01T09:32:21;101650.63;;;5.14;100.00
9257;BME280;4665;51.368;6.782;2023-02-01T09:34:48;101644.69;;;5.10;100.00
9257;BME280;4665;51.368;6.782;2023-02-01T09:37:13;101644.22;;;5.18;100.00
9257;BME280;4665;51.368;6.782;2023-02-01T09:39:38;101656.63;;;5.30;100.00
9257;BME280;4665;51.368;6.782;2023-02-01T09:47:16;101665.31;;;5.32;100.00
9257;BME280;4665;51.368;6.782;2023-02-01T09:49:52;101653.03;;;5.31;100.00
9257;BME280;4665;51.368;6.782;2023-02-01T09:52:27;101648.69;;;5.30;100.00
9257;BME280;4665;51.368;6.782;2023-02-01T09:55:01;101656.34;;;5.35;100.00
9257;BME280;4665;51.368;6.782;2023-02-01T10:00:11;101662.38;;;5.37;100.00
9257;BME280;4665;51.368;6.782;2023-02-01T10:02:41;101649.78;;;5.40;100.00
9257;BME280;4665;51.368;6.782;2023-02-01T10:05:13;101643.56;;;5.41;100.00
9257;BME280;4665;51.368;6.782;2023-02-01T10:10:31;101659.00;;;5.47;100.00
9257;BME280;4665;51.368;6.782;2023-02-01T10:16:25;101638.44;;;5.53;100.00
9257;BME280;4665;51.368;6.782;2023-02-01T10:19:24;101649.53;;;5.58;100.00
9257;BME280;4665;51.368;6.782;2023-02-01T10:21:57;101642.16;;;5.63;100.00
9257;BME280;4665;51.368;6.782;2023-02-01T10:24:40;101641.19;;;5.64;100.00
9257;BME280;4665;51.368;6.782;2023-02-01T10:29:38;101639.13;;;5.69;100.00
9257;BME280;4665;51.368;6.782;2023-02-01T10:32:21;101644.09;;;5.74;100.00
9257;BME280;4665;51.368;6.782;2023-02-01T10:34:59;101638.38;;;5.80;100.00
9257;BME280;4665;51.368;6.782;2023-02-01T10:37:29;101645.47;;;5.79;100.00
9257;BME280;4665;51.368;6.782;2023-02-01T10:39:56;101650.75;;;5.79;100.00
9257;BME280;4665;51.368;6.782;2023-02-01T10:42:27;101639.13;;;5.82;100.00
9257;BME280;4665;51.368;6.782;2023-02-01T10:44:57;101656.59;;;5.84;100.00
9257;BME280;4665;51.368;6.782;2023-02-01T10:47:23;101654.16;;;5.81;100.00
9257;BME280;4665;51.368;6.782;2023-02-01T10:53:07;101643.66;;;5.80;100.00
9257;BME280;4665;51.368;6.782;2023-02-01T10:55:26;101650.44;;;5.84;100.00
9257;BME280;4665;51.368;6.782;2023-02-01T10:58:00;101628.38;;;5.85;100.00
9257;BME280;4665;51.368;6.782;2023-02-01T11:00:27;101640.41;;;5.89;100.00
9257;BME280;4665;51.368;6.782;2023-02-01T11:02:53;101635.25;;;5.87;100.00
9257;BME280;4665;51.368;6.782;2023-02-01T11:05:19;101630.88;;;5.86;100.00
9257;BME280;4665;51.368;6.782;2023-02-01T11:07:53;101629.53;;;5.94;100.00
9257;BME280;4665;51.368;6.782;2023-02-01T11:10:40;101626.72;;;5.97;100.00
9257;BME280;4665;51.368;6.782;2023-02-01T11:13:15;101614.75;;;6.04;100.00
9257;BME280;4665;51.368;6.782;2023-02-01T11:15:45;101607.56;;;6.06;100.00
9257;BME280;4665;51.368;6.782;2023-02-01T11:18:19;101612.22;;;6.15;100.00
9257;BME280;4665;51.368;6.782;2023-02-01T11:20:46;101597.06;;;6.17;100.00
9257;BME280;4665;51.368;6.782;2023-02-01T11:23:19;101603.00;;;6.21;100.00
9257;BME280;4665;51.368;6.782;2023-02-01T11:25:58;101611.19;;;6.18;100.00
9257;BME280;4665;51.368;6.782;2023-02-01T11:28:31;101611.78;;;6.21;100.00
9257;BME280;4665;51.368;6.782;2023-02-01T11:31:00;101607.66;;;6.17;100.00
9257;BME280;4665;51.368;6.782;2023-02-01T11:33:31;101597.94;;;6.18;100.00
9257;BME280;4665;51.368;6.782;2023-02-01T11:36:05;101580.25;;;6.18;100.00
9257;BME280;4665;51.368;6.782;2023-02-01T11:38:33;101567.97;;;6.17;100.00
9257;BME280;4665;51.368;6.782;2023-02-01T11:41:22;101571.50;;;6.18;100.00
9257;BME280;4665;51.368;6.782;2023-02-01T11:43:59;101581.75;;;6.22;100.00
9257;BME280;4665;51.368;6.782;2023-02-01T11:46:31;101579.09;;;6.22;100.00
9257;BME280;4665;51.368;6.782;2023-02-01T11:49:15;101573.81;;;6.22;100.00
9257;BME280;4665;51.368;6.782;2023-02-01T11:57:13;101573.38;;;6.16;100.00
9257;BME280;4665;51.368;6.782;2023-02-01T12:07:59;101560.25;;;6.14;100.00
9257;BME280;4665;51.368;6.782;2023-02-01T12:16:26;101557.72;;;6.25;100.00
9257;BME280;4665;51.368;6.782;2023-02-01T12:18:58;101563.53;;;6.30;100.00
9257;BME280;4665;51.368;6.782;2023-02-01T12:32:09;101528.38;;;6.41;100.00
9257;BME280;4665;51.368;6.782;2023-02-01T12:42:30;101509.50;;;6.46;100.00
9257;BME280;4665;51.368;6.782;2023-02-01T12:45:38;101513.09;;;6.45;100.00
9257;BME280;4665;51.368;6.782;2023-02-01T12:48:29;101509.28;;;6.49;100.00
9257;BME280;4665;51.368;6.782;2023-02-01T12:51:07;101500.16;;;6.53;100.00
9257;BME280;4665;51.368;6.782;2023-02-01T12:53:53;101509.03;;;6.52;100.00
9257;BME280;4665;51.368;6.782;2023-02-01T12:56:25;101512.56;;;6.52;100.00
9257;BME280;4665;51.368;6.782;2023-02-01T12:58:56;101511.19;;;6.47;100.00
9257;BME280;4665;51.368;6.782;2023-02-01T13:01:53;101494.78;;;6.55;100.00
9257;BME280;4665;51.368;6.782;2023-02-01T13:04:47;101503.88;;;6.50;100.00
9257;BME280;4665;51.368;6.782;2023-02-01T13:07:19;101494.13;;;6.51;100.00
9257;BME280;4665;51.368;6.782;2023-02-01T13:10:45;101504.81;;;6.49;100.00
9257;BME280;4665;51.368;6.782;2023-02-01T13:18:37;101497.94;;;6.60;100.00
9257;BME280;4665;51.368;6.782;2023-02-01T13:21:14;101487.44;;;6.58;100.00
9257;BME280;4665;51.368;6.782;2023-02-01T13:23:43;101501.31;;;6.62;100.00
9257;BME280;4665;51.368;6.782;2023-02-01T13:26:11;101495.03;;;6.63;100.00
9257;BME280;4665;51.368;6.782;2023-02-01T13:28:47;101496.75;;;6.64;100.00
9257;BME280;4665;51.368;6.782;2023-02-01T13:31:57;101495.69;;;6.66;100.00
9257;BME280;4665;51.368;6.782;2023-02-01T13:34:54;101493.63;;;6.70;100.00
9257;BME280;4665;51.368;6.782;2023-02-01T13:42:51;101497.31;;;6.80;100.00
9257;BME280;4665;51.368;6.782;2023-02-01T13:45:30;101492.03;;;6.80;100.00
9257;BME280;4665;51.368;6.782;2023-02-01T13:48:01;101505.13;;;6.82;100.00
9257;BME280;4665;51.368;6.782;2023-02-01T13:50:34;101490.72;;;6.86;100.00
9257;BME280;4665;51.368;6.782;2023-02-01T13:53:13;101494.09;;;6.88;100.00
9257;BME280;4665;51.368;6.782;2023-02-01T13:55:43;101493.25;;;6.87;100.00
9257;BME280;4665;51.368;6.782;2023-02-01T14:00:42;101484.72;;;6.95;100.00
9257;BME280;4665;51.368;6.782;2023-02-01T14:03:15;101486.06;;;7.01;100.00
9257;BME280;4665;51.368;6.782;2023-02-01T14:08:13;101498.47;;;7.00;100.00
9257;BME280;4665;51.368;6.782;2023-02-01T14:26:21;101514.25;;;7.26;100.00
9257;BME280;4665;51.368;6.782;2023-02-01T14:29:02;101505.22;;;7.28;100.00
9257;BME280;4665;51.368;6.782;2023-02-01T14:31:39;101503.53;;;7.27;100.00
9257;BME280;4665;51.368;6.782;2023-02-01T14:34:16;101511.25;;;7.30;100.00
9257;BME280;4665;51.368;6.782;2023-02-01T14:36:54;101519.31;;;7.29;100.00
9257;BME280;4665;51.368;6.782;2023-02-01T14:39:50;101531.91;;;7.38;100.00
9257;BME280;4665;51.368;6.782;2023-02-01T14:42:22;101519.22;;;7.42;100.00
9257;BME280;4665;51.368;6.782;2023-02-01T14:44:50;101519.97;;;7.44;100.00
9257;BME280;4665;51.368;6.782;2023-02-01T14:49:54;101513.81;;;7.43;100.00
9257;BME280;4665;51.368;6.782;2023-02-01T14:52:25;101507.94;;;7.51;100.00
9257;BME280;4665;51.368;6.782;2023-02-01T14:54:56;101521.78;;;7.43;100.00
9257;BME280;4665;51.368;6.782;2023-02-01T14:57:26;101525.72;;;7.37;100.00
9257;BME280;4665;51.368;6.782;2023-02-01T15:00:00;101525.84;;;7.36;100.00
9257;BME280;4665;51.368;6.782;2023-02-01T15:02:30;101526.06;;;7.33;100.00
9257;BME280;4665;51.368;6.782;2023-02-01T15:04:59;101526.06;;;7.33;100.00
9257;BME280;4665;51.368;6.782;2023-02-01T15:07:25;101525.34;;;7.31;100.00
9257;BME280;4665;51.368;6.782;2023-02-01T15:09:54;101530.19;;;7.37;100.00
9257;BME280;4665;51.368;6.782;2023-02-01T15:12:25;101530.91;;;7.39;100.00
9257;BME280;4665;51.368;6.782;2023-02-01T15:15:14;101528.50;;;7.36;100.00
9257;BME280;4665;51.368;6.782;2023-02-01T15:17:40;101536.22;;;7.39;100.00
9257;BME280;4665;51.368;6.782;2023-02-01T15:20:21;101530.81;;;7.41;100.00
9257;BME280;4665;51.368;6.782;2023-02-01T15:23:02;101540.09;;;7.46;100.00
9257;BME280;4665;51.368;6.782;2023-02-01T15:25:32;101519.97;;;7.44;100.00
9257;BME280;4665;51.368;6.782;2023-02-01T15:27:58;101536.84;;;7.43;100.00
9257;BME280;4665;51.368;6.782;2023-02-01T15:30:24;101529.00;;;7.41;100.00
9257;BME280;4665;51.368;6.782;2023-02-01T15:32:58;101531.91;;;7.38;100.00
9257;BME280;4665;51.368;6.782;2023-02-01T15:35:48;101522.72;;;7.42;100.00
9257;BME280;4665;51.368;6.782;2023-02-01T15:41:06;101508.13;;;7.36;100.00